createdAt,value
2022-09-07T07:47:50.765Z,100316.75
2022-09-07T07:50:33.742Z,100301.97
2022-09-07T07:55:48.583Z,100298.88
2022-09-07T07:58:15.226Z,100300.91
2022-09-07T08:00:54.456Z,100298.00
2022-09-07T08:03:23.498Z,100287.59
2022-09-07T08:05:50.274Z,100273.75
2022-09-07T08:08:16.863Z,100290.34
2022-09-07T08:10:45.891Z,100289.53
2022-09-07T08:13:12.487Z,100286.81
2022-09-07T08:15:45.273Z,100282.09
2022-09-07T08:18:17.045Z,100284.69
2022-09-07T08:20:44.390Z,100298.97
2022-09-07T08:23:11.744Z,100298.09
2022-09-07T08:25:38.547Z,100307.56
2022-09-07T08:28:06.060Z,100292.31
2022-09-07T08:30:32.684Z,100291.19
2022-09-07T08:32:59.368Z,100288.22
2022-09-07T08:35:25.987Z,100296.63
2022-09-07T08:37:52.557Z,100292.47
2022-09-07T08:40:20.390Z,100291.34
2022-09-07T08:43:12.242Z,100285.28
2022-09-07T08:46:12.723Z,100289.97
2022-09-07T08:48:40.226Z,100295.91
2022-09-07T08:51:21.125Z,100299.06
2022-09-07T08:53:50.647Z,100287.00
2022-09-07T08:59:39.608Z,100277.97
2022-09-07T09:02:32.864Z,100300.91
2022-09-07T09:05:18.270Z,100287.19
2022-09-07T09:07:54.826Z,100290.53
2022-09-07T09:10:39.759Z,100286.41
2022-09-07T09:13:48.995Z,100283.38
2022-09-07T09:16:37.728Z,100283.53
2022-09-07T09:19:28.480Z,100285.19
2022-09-07T09:22:08.671Z,100273.56
2022-09-07T09:24:41.168Z,100273.94
2022-09-07T09:27:09.643Z,100278.72
2022-09-07T09:29:36.311Z,100281.28
2022-09-07T09:32:32.884Z,100279.25
2022-09-07T09:35:24.232Z,100276.88
2022-09-07T09:37:51.640Z,100273.69
2022-09-07T09:40:37.326Z,100287.88
2022-09-07T09:43:18.042Z,100287.63
2022-09-07T09:46:17.818Z,100277.81
2022-09-07T09:48:40.484Z,100275.44
2022-09-07T09:54:14.061Z,100235.84
2022-09-07T09:56:45.743Z,100260.09
2022-09-07T10:05:34.375Z,100249.50
2022-09-07T10:08:01.515Z,100235.28
2022-09-07T10:10:29.621Z,100237.16
2022-09-07T10:12:57.571Z,100241.72
2022-09-07T10:15:40.497Z,100252.00
2022-09-07T10:18:23.738Z,100250.69
2022-09-07T10:20:50.491Z,100250.94
2022-09-07T10:23:23.890Z,100252.91
2022-09-07T10:25:52.815Z,100255.41
2022-09-07T10:28:23.712Z,100267.25
2022-09-07T10:31:17.226Z,100266.22
2022-09-07T10:34:31.025Z,100270.56
2022-09-07T10:37:01.382Z,100268.28
2022-09-07T10:40:03.502Z,100279.44
2022-09-07T10:42:35.834Z,100245.72
2022-09-07T10:45:45.481Z,100278.09
2022-09-07T10:48:21.213Z,100271.78
2022-09-07T10:50:53.349Z,100271.09
2022-09-07T10:53:41.708Z,100272.94
2022-09-07T10:56:17.804Z,100265.16
2022-09-07T10:59:04.098Z,100269.41
2022-09-07T11:01:52.672Z,100274.41
2022-09-07T11:04:38.552Z,100261.97
2022-09-07T11:07:44.718Z,100280.53
2022-09-07T11:10:29.881Z,100281.88
2022-09-07T11:13:01.200Z,100280.91
2022-09-07T11:15:32.439Z,100274.44
2022-09-07T11:18:19.870Z,100280.19
2022-09-07T11:20:57.925Z,100287.19
2022-09-07T11:23:40.892Z,100257.69
2022-09-07T11:26:28.414Z,100280.69
2022-09-07T11:32:47.819Z,100275.25
2022-09-07T11:35:46.680Z,100279.19
2022-09-07T11:38:23.312Z,100284.53
2022-09-07T11:41:08.837Z,100289.59
2022-09-07T11:43:42.308Z,100282.97
2022-09-07T11:46:34.156Z,100284.41
2022-09-07T11:49:04.451Z,100288.31
2022-09-07T11:51:53.748Z,100282.09
2022-09-07T11:54:32.734Z,100292.63
2022-09-07T11:57:20.463Z,100283.75
2022-09-07T12:00:03.762Z,100290.41
2022-09-07T12:03:00.735Z,100277.00
2022-09-07T12:05:43.187Z,100294.97
2022-09-07T12:08:18.443Z,100274.31
2022-09-07T12:11:23.397Z,100272.53
2022-09-07T12:14:08.517Z,100290.94
2022-09-07T12:16:53.591Z,100289.75
2022-09-07T12:19:25.767Z,100297.56
2022-09-07T12:21:52.388Z,100287.94
2022-09-07T12:24:53.740Z,100291.41
2022-09-07T12:27:20.409Z,100285.81
2022-09-07T12:30:11.365Z,100289.16
2022-09-07T12:32:57.380Z,100294.50
2022-09-07T12:35:25.189Z,100285.47
2022-09-07T12:37:52.639Z,100299.06
2022-09-07T12:40:32.377Z,100294.22
2022-09-07T12:43:15.154Z,100295.19
2022-09-07T12:45:43.184Z,100302.00
2022-09-07T12:48:09.810Z,100292.94
2022-09-07T12:50:54.887Z,100299.97
2022-09-07T12:53:43.894Z,100304.50
2022-09-07T12:56:27.748Z,100295.06
2022-09-07T12:59:00.211Z,100299.75
2022-09-07T13:01:36.056Z,100299.88
2022-09-07T13:04:41.152Z,100301.97
2022-09-07T13:07:30.525Z,100308.16
2022-09-07T13:09:59.867Z,100308.94
2022-09-07T13:12:58.070Z,100302.13
2022-09-07T13:15:43.696Z,100300.50
2022-09-07T13:18:29.468Z,100306.56
2022-09-07T13:21:08.421Z,100311.00
2022-09-07T13:23:38.599Z,100303.88
2022-09-07T13:26:10.992Z,100313.44
2022-09-07T13:29:14.488Z,100307.25
2022-09-07T13:32:19.965Z,100306.31
2022-09-07T13:35:04.975Z,100301.28
2022-09-07T13:37:59.460Z,100308.22
2022-09-07T13:40:35.576Z,100307.31
2022-09-07T13:43:06.050Z,100311.00
2022-09-07T13:45:45.436Z,100312.97
2022-09-07T13:48:24.357Z,100305.19
2022-09-07T13:51:00.847Z,100312.31
2022-09-07T13:53:41.135Z,100306.50
2022-09-07T13:56:13.919Z,100312.75
2022-09-07T13:58:48.085Z,100311.84
2022-09-07T14:01:28.054Z,100307.66
2022-09-07T14:04:09.529Z,100308.72
2022-09-07T14:06:38.672Z,100315.22
2022-09-07T14:09:14.930Z,100316.50
2022-09-07T14:11:47.270Z,100317.63
2022-09-07T14:14:27.128Z,100310.81
2022-09-07T14:17:01.759Z,100307.59
2022-09-07T14:19:45.266Z,100313.38
2022-09-07T14:22:20.581Z,100327.72
2022-09-07T14:24:55.673Z,100319.69
2022-09-07T14:27:26.346Z,100320.38
2022-09-07T14:29:53.297Z,100316.66
2022-09-07T14:32:25.174Z,100322.28
2022-09-07T14:34:52.629Z,100318.81
2022-09-07T14:37:22.427Z,100316.34
2022-09-07T14:39:51.022Z,100316.28
2022-09-07T14:42:23.604Z,100317.00
2022-09-07T14:45:23.273Z,100322.06
2022-09-07T14:47:55.195Z,100319.41
2022-09-07T14:50:33.834Z,100322.66
2022-09-07T14:56:02.597Z,100304.31
2022-09-07T14:58:32.822Z,100321.69
2022-09-07T15:04:17.935Z,100313.78
2022-09-07T15:07:02.146Z,100315.81
2022-09-07T15:09:37.530Z,100312.31
2022-09-07T15:12:27.137Z,100307.25
2022-09-07T15:15:10.635Z,100308.03
2022-09-07T15:17:45.017Z,100325.59
2022-09-07T15:20:30.415Z,100321.34
2022-09-07T15:22:57.032Z,100316.19
2022-09-07T15:25:23.641Z,100327.59
2022-09-07T15:27:50.652Z,100317.06
2022-09-07T15:30:17.729Z,100316.41
2022-09-07T15:32:44.449Z,100327.66
2022-09-07T15:35:11.173Z,100305.31
2022-09-07T15:40:25.819Z,100332.28
2022-09-07T15:43:02.024Z,100331.47
2022-09-07T15:45:32.769Z,100323.75
2022-09-07T15:47:59.513Z,100285.97
2022-09-07T15:50:26.104Z,100331.56
2022-09-07T15:52:52.743Z,100325.50
2022-09-07T15:55:19.348Z,100335.19
2022-09-07T15:57:52.700Z,100337.81
2022-09-07T16:00:21.533Z,100329.19
2022-09-07T16:03:06.159Z,100331.66
2022-09-07T16:05:33.786Z,100329.16
2022-09-07T16:10:55.205Z,100330.94
2022-09-07T16:13:24.268Z,100338.84
2022-09-07T16:15:51.693Z,100351.03
2022-09-07T16:18:18.737Z,100341.34
2022-09-07T16:20:45.667Z,100333.13
2022-09-07T16:23:17.709Z,100340.59
2022-09-07T16:25:57.162Z,100348.56
2022-09-07T16:28:24.345Z,100347.81
2022-09-07T16:30:51.015Z,100343.56
2022-09-07T16:33:17.648Z,100341.94
2022-09-07T16:35:45.073Z,100341.88
2022-09-07T16:41:00.627Z,100350.75
2022-09-07T16:43:33.380Z,100346.41
2022-09-07T16:46:05.345Z,100340.44
2022-09-07T16:48:34.228Z,100343.97
2022-09-07T16:51:02.765Z,100337.78
2022-09-07T16:53:32.884Z,100340.53
2022-09-07T16:56:16.963Z,100339.63
2022-09-07T16:58:49.036Z,100339.63
2022-09-07T17:01:19.354Z,100343.88
2022-09-07T17:03:46.812Z,100331.00
2022-09-07T17:06:15.394Z,100338.69
2022-09-07T17:08:42.664Z,100335.31
2022-09-07T17:11:12.788Z,100342.31
2022-09-07T17:13:41.520Z,100329.22
2022-09-07T17:16:10.808Z,100321.59
2022-09-07T17:21:33.278Z,100332.84
2022-09-07T17:24:01.797Z,100330.22
2022-09-07T17:26:30.676Z,100323.97
2022-09-07T17:29:00.248Z,100329.09
2022-09-07T17:34:19.953Z,100320.25
2022-09-07T17:36:47.042Z,100316.03
2022-09-07T17:39:16.480Z,100314.25
2022-09-07T17:41:46.596Z,100322.09
2022-09-07T17:44:13.244Z,100325.53
2022-09-07T17:46:39.969Z,100296.13
2022-09-07T17:49:10.394Z,100313.19
2022-09-07T17:51:37.156Z,100317.69
2022-09-07T17:54:13.204Z,100313.19
2022-09-07T17:56:41.708Z,100313.88
2022-09-07T18:02:13.923Z,100318.28
2022-09-07T18:04:43.504Z,100314.72
2022-09-07T18:07:22.900Z,100307.81
2022-09-07T18:09:49.539Z,100302.56
2022-09-07T18:12:16.169Z,100319.09
2022-09-07T18:14:44.673Z,100319.97
2022-09-07T18:17:11.391Z,100312.28
2022-09-07T18:19:38.529Z,100307.16
2022-09-07T18:22:06.004Z,100318.50
2022-09-07T18:24:32.766Z,100314.22
2022-09-07T18:26:59.891Z,100310.00
2022-09-07T18:29:31.166Z,100309.50
2022-09-07T18:32:01.328Z,100316.22
2022-09-07T18:34:43.993Z,100312.69
2022-09-07T18:37:14.147Z,100306.66
2022-09-07T18:39:42.102Z,100310.06
2022-09-07T18:42:32.488Z,100322.94
2022-09-07T18:47:46.615Z,100311.84
2022-09-07T18:50:14.434Z,100317.09
2022-09-07T18:53:07.533Z,100299.91
2022-09-07T18:55:30.828Z,100302.75
2022-09-07T18:57:57.503Z,100319.41
2022-09-07T19:00:24.221Z,100318.66
2022-09-07T19:02:51.912Z,100317.84
2022-09-07T19:08:06.997Z,100313.59
2022-09-07T19:10:35.936Z,100316.19
2022-09-07T19:13:05.039Z,100316.28
2022-09-07T19:15:37.588Z,100309.28
2022-09-07T19:18:13.677Z,100292.88
2022-09-07T19:20:41.030Z,100318.88
2022-09-07T19:23:07.662Z,100325.81
2022-09-07T19:25:34.350Z,100308.50
2022-09-07T19:28:01.003Z,100321.53
2022-09-07T19:30:28.083Z,100318.91
2022-09-07T19:32:54.763Z,100308.56
2022-09-07T19:35:21.469Z,100325.94
2022-09-07T19:37:48.509Z,100314.66
2022-09-07T19:40:19.103Z,100322.53
2022-09-07T19:42:46.359Z,100321.66
2022-09-07T19:45:16.664Z,100318.97
2022-09-07T19:47:43.323Z,100321.66
2022-09-07T19:50:14.136Z,100313.81
2022-09-07T19:52:40.758Z,100279.16
2022-09-07T19:55:07.807Z,100324.78
2022-09-07T19:57:35.201Z,100329.28
2022-09-07T20:00:01.922Z,100322.41
2022-09-07T20:02:28.508Z,100323.34
2022-09-07T20:04:57.072Z,100318.09
2022-09-07T20:07:26.254Z,100323.25
2022-09-07T20:09:53.179Z,100317.97
2022-09-07T20:12:20.645Z,100323.25
2022-09-07T20:14:47.257Z,100325.97
2022-09-07T20:17:13.828Z,100329.50
2022-09-07T20:19:40.493Z,100318.22
2022-09-07T20:22:07.075Z,100313.88
2022-09-07T20:24:35.273Z,100318.22
2022-09-07T20:27:03.859Z,100326.13
2022-09-07T20:29:31.597Z,100318.19
2022-09-07T20:32:01.604Z,100316.59
2022-09-07T20:34:30.918Z,100323.44
2022-09-07T20:36:57.537Z,100315.56
2022-09-07T20:39:24.315Z,100311.34
2022-09-07T20:41:51.507Z,100320.75
2022-09-07T20:44:19.359Z,100313.88
2022-09-07T20:46:45.964Z,100327.75
2022-09-07T20:49:13.465Z,100317.34
2022-09-07T20:51:40.072Z,100325.13
2022-09-07T20:54:10.214Z,100316.34
2022-09-07T20:56:36.824Z,100300.03
2022-09-07T20:59:03.818Z,100312.13
2022-09-07T21:01:32.481Z,100303.34
2022-09-07T21:04:02.180Z,100313.78
2022-09-07T21:06:30.909Z,100312.06
2022-09-07T21:08:57.919Z,100300.88
2022-09-07T21:11:31.237Z,100309.50
2022-09-07T21:14:11.441Z,100299.81
2022-09-07T21:16:39.296Z,100301.44
2022-09-07T21:19:09.143Z,100294.47
2022-09-07T21:21:39.336Z,100293.28
2022-09-07T21:24:16.692Z,100285.44
2022-09-07T21:26:43.267Z,100296.81
2022-09-07T21:29:17.033Z,100287.28
2022-09-07T21:31:43.880Z,100287.22
2022-09-07T21:34:10.824Z,100273.47
2022-09-07T21:36:37.555Z,100288.03
2022-09-07T21:39:05.259Z,100290.66
2022-09-07T21:41:31.817Z,100287.28
2022-09-07T21:44:01.324Z,100278.66
2022-09-07T21:46:30.151Z,100285.50
2022-09-07T21:48:58.354Z,100281.06
2022-09-07T21:51:26.588Z,100283.59
2022-09-07T21:54:00.840Z,100288.91
2022-09-07T21:56:29.634Z,100268.31
2022-09-07T21:58:58.288Z,100280.41
2022-09-07T22:01:27.451Z,100277.72
2022-09-07T22:03:57.715Z,100255.25
2022-09-07T22:06:25.199Z,100280.41
2022-09-07T22:08:52.327Z,100273.41
2022-09-07T22:11:21.215Z,100276.81
2022-09-07T22:13:48.136Z,100246.59
2022-09-07T22:16:15.530Z,100273.91
2022-09-07T22:18:46.194Z,100282.59
2022-09-07T22:21:24.871Z,100270.50
2022-09-07T22:23:54.792Z,100281.97
2022-09-07T22:26:23.847Z,100271.28
2022-09-07T22:28:51.323Z,100267.13
2022-09-07T22:31:29.835Z,100260.41
2022-09-07T22:33:59.329Z,100276.88
2022-09-07T22:36:29.048Z,100278.47
2022-09-07T22:39:02.338Z,100269.78
2022-09-07T22:41:31.938Z,100271.50
2022-09-07T22:44:02.692Z,100278.44
2022-09-07T22:46:31.298Z,100274.03
2022-09-07T22:48:58.952Z,100271.28
2022-09-07T22:51:26.870Z,100278.28
2022-09-07T22:53:56.348Z,100277.72
2022-09-07T22:56:25.681Z,100270.22
2022-09-07T22:59:00.016Z,100270.13
2022-09-07T23:01:28.733Z,100241.97
2022-09-07T23:03:56.284Z,100277.25
2022-09-07T23:06:40.058Z,100271.19
2022-09-07T23:09:12.472Z,100281.50
2022-09-07T23:11:39.536Z,100283.19
2022-09-07T23:14:11.687Z,100272.75
2022-09-07T23:16:39.140Z,100282.31
2022-09-07T23:19:05.777Z,100277.03
2022-09-07T23:21:33.118Z,100286.72
2022-09-07T23:24:00.331Z,100285.88
2022-09-07T23:26:29.677Z,100283.88
2022-09-07T23:28:58.692Z,100281.41
2022-09-07T23:31:26.742Z,100287.66
2022-09-07T23:33:53.760Z,100278.97
2022-09-07T23:36:22.822Z,100276.50
2022-09-07T23:38:49.835Z,100285.13
2022-09-07T23:41:20.213Z,100280.69
2022-09-07T23:43:46.814Z,100284.03
2022-09-07T23:46:14.421Z,100279.88
2022-09-07T23:48:43.675Z,100276.44
2022-09-07T23:51:10.761Z,100280.78
2022-09-07T23:53:37.704Z,100269.72
2022-09-07T23:56:04.589Z,100287.81
2022-09-07T23:58:31.456Z,100271.94
